createdAt,value
2022-08-22T00:02:14.261Z,100.00
2022-08-22T00:03:02.741Z,98.07
2022-08-22T00:04:53.358Z,99.45
2022-08-22T00:07:45.067Z,100.00
2022-08-22T00:10:25.031Z,96.57
2022-08-22T00:13:14.943Z,100.00
2022-08-22T00:15:45.055Z,100.00
2022-08-22T00:18:32.382Z,100.00
2022-08-22T00:21:13.674Z,100.00
2022-08-22T00:23:50.850Z,100.00
2022-08-22T00:26:43.312Z,100.00
2022-08-22T00:29:19.635Z,100.00
2022-08-22T00:31:47.930Z,100.00
2022-08-22T00:34:24.391Z,96.38
2022-08-22T00:37:03.094Z,100.00
2022-08-22T00:39:55.255Z,100.00
2022-08-22T00:42:35.249Z,100.00
2022-08-22T00:45:21.173Z,100.00
2022-08-22T00:48:03.913Z,100.00
2022-08-22T00:51:08.955Z,100.00
2022-08-22T00:53:58.428Z,100.00
2022-08-22T00:56:31.946Z,100.00
2022-08-22T00:59:23.753Z,100.00
2022-08-22T01:02:11.200Z,100.00
2022-08-22T01:05:05.295Z,97.17
2022-08-22T01:08:05.401Z,97.06
2022-08-22T01:10:42.782Z,94.50
2022-08-22T01:13:29.020Z,100.00
2022-08-22T01:16:10.430Z,100.00
2022-08-22T01:18:48.744Z,100.00
2022-08-22T01:21:46.510Z,99.37
2022-08-22T01:24:35.867Z,100.00
2022-08-22T01:27:38.021Z,100.00
2022-08-22T01:30:16.488Z,95.21
2022-08-22T01:33:03.479Z,97.03
2022-08-22T01:35:48.287Z,95.71
2022-08-22T01:38:21.048Z,97.93
2022-08-22T01:41:06.392Z,100.00
2022-08-22T01:44:00.058Z,99.78
2022-08-22T01:46:34.632Z,100.00
2022-08-22T01:49:30.218Z,100.00
2022-08-22T01:52:11.944Z,100.00
2022-08-22T01:54:59.551Z,100.00
2022-08-22T01:57:27.557Z,96.47
2022-08-22T01:59:58.289Z,98.44
2022-08-22T02:02:56.772Z,97.23
2022-08-22T02:05:37.337Z,100.00
2022-08-22T02:08:23.989Z,100.00
2022-08-22T02:11:03.706Z,98.43
2022-08-22T02:13:54.733Z,97.37
2022-08-22T02:16:27.867Z,100.00
2022-08-22T02:19:14.986Z,97.50
2022-08-22T02:22:12.268Z,92.13
2022-08-22T02:25:00.947Z,93.95
2022-08-22T02:27:46.935Z,100.00
2022-08-22T02:30:18.169Z,96.53
2022-08-22T02:32:57.176Z,93.34
2022-08-22T02:35:33.276Z,94.77
2022-08-22T02:38:28.260Z,98.63
2022-08-22T02:41:07.119Z,98.63
2022-08-22T02:43:49.575Z,100.00
2022-08-22T02:46:30.463Z,98.44
2022-08-22T02:49:01.148Z,93.04
2022-08-22T02:52:04.350Z,90.60
2022-08-22T02:54:45.683Z,90.09
2022-08-22T02:57:25.527Z,89.30
2022-08-22T03:00:30.837Z,89.55
2022-08-22T03:03:03.345Z,88.50
2022-08-22T03:05:36.912Z,89.93
2022-08-22T03:08:24.383Z,89.32
2022-08-22T03:11:18.012Z,89.30
2022-08-22T03:14:01.609Z,89.71
2022-08-22T03:16:45.077Z,92.54
2022-08-22T03:19:18.821Z,91.63
2022-08-22T03:21:57.378Z,87.28
2022-08-22T03:24:32.087Z,92.26
2022-08-22T03:27:06.431Z,88.31
2022-08-22T03:29:40.526Z,93.89
2022-08-22T03:32:22.520Z,95.98
2022-08-22T03:35:19.634Z,96.21
2022-08-22T03:37:47.788Z,90.03
2022-08-22T03:40:31.479Z,95.27
2022-08-22T03:43:05.663Z,91.97
2022-08-22T03:45:44.025Z,94.48
2022-08-22T03:48:17.744Z,95.59
2022-08-22T03:50:54.582Z,97.60
2022-08-22T03:53:51.848Z,97.79
2022-08-22T03:56:25.330Z,100.00
2022-08-22T03:59:26.155Z,99.67
2022-08-22T04:02:43.287Z,95.69
2022-08-22T04:05:40.621Z,93.35
2022-08-22T04:08:29.758Z,95.49
2022-08-22T04:11:16.447Z,93.94
2022-08-22T04:14:16.828Z,93.02
2022-08-22T04:17:18.303Z,91.04
2022-08-22T04:20:21.176Z,92.11
2022-08-22T04:23:07.936Z,97.03
2022-08-22T04:25:41.283Z,97.04
2022-08-22T04:28:29.212Z,98.20
2022-08-22T04:31:17.328Z,97.77
2022-08-22T04:33:49.963Z,95.98
2022-08-22T04:36:30.981Z,90.31
2022-08-22T04:39:04.987Z,89.67
2022-08-22T04:41:48.191Z,85.86
2022-08-22T04:44:31.986Z,80.69
2022-08-22T04:47:05.168Z,79.82
2022-08-22T04:49:57.781Z,78.54
2022-08-22T04:53:10.553Z,78.76
2022-08-22T04:56:07.356Z,78.91
2022-08-22T04:58:48.987Z,80.04
2022-08-22T05:01:40.959Z,79.97
2022-08-22T05:04:13.230Z,80.52
2022-08-22T05:06:44.410Z,79.96
2022-08-22T05:09:16.500Z,82.81
2022-08-22T05:11:45.927Z,82.08
2022-08-22T05:14:36.834Z,82.74
2022-08-22T05:17:07.759Z,87.50
2022-08-22T05:19:40.025Z,90.60
2022-08-22T05:22:15.189Z,95.61
2022-08-22T05:24:45.105Z,87.20
2022-08-22T05:27:20.607Z,84.31
2022-08-22T05:29:58.176Z,83.48
2022-08-22T05:32:32.327Z,89.16
2022-08-22T05:35:01.871Z,83.13
2022-08-22T05:37:43.565Z,79.67
2022-08-22T05:40:22.016Z,80.88
2022-08-22T05:42:49.812Z,84.15
2022-08-22T05:45:18.288Z,78.80
2022-08-22T05:47:52.211Z,77.32
2022-08-22T05:50:50.416Z,78.10
2022-08-22T05:53:41.580Z,85.84
2022-08-22T05:56:10.995Z,83.49
2022-08-22T05:58:54.886Z,81.32
2022-08-22T06:02:00.777Z,85.50
2022-08-22T06:04:59.411Z,83.14
2022-08-22T06:07:35.568Z,86.73
2022-08-22T06:10:06.027Z,90.32
2022-08-22T06:12:37.278Z,86.36
2022-08-22T06:15:23.068Z,81.13
2022-08-22T06:17:57.861Z,87.87
2022-08-22T06:20:36.557Z,90.04
2022-08-22T06:23:05.920Z,86.45
2022-08-22T06:25:37.730Z,87.82
2022-08-22T06:28:08.392Z,90.53
2022-08-22T06:30:37.334Z,89.78
2022-08-22T06:33:12.380Z,92.38
2022-08-22T06:36:03.427Z,90.72
2022-08-22T06:38:33.597Z,88.30
2022-08-22T06:41:05.671Z,87.95
2022-08-22T06:43:38.755Z,84.08
2022-08-22T06:46:07.032Z,81.17
2022-08-22T06:48:35.453Z,80.68
2022-08-22T06:51:06.469Z,76.61
2022-08-22T06:53:47.883Z,76.69
2022-08-22T06:56:21.878Z,76.82
2022-08-22T06:58:50.962Z,74.13
2022-08-22T07:01:24.281Z,72.04
2022-08-22T07:03:59.591Z,71.90
2022-08-22T07:06:39.403Z,70.76
2022-08-22T07:09:16.357Z,68.70
2022-08-22T07:11:43.911Z,70.08
2022-08-22T07:14:15.881Z,72.50
2022-08-22T07:16:52.134Z,70.79
2022-08-22T07:19:36.961Z,70.53
2022-08-22T07:22:15.795Z,66.57
2022-08-22T07:24:48.297Z,67.75
2022-08-22T07:27:50.078Z,68.07
2022-08-22T07:30:28.066Z,68.62
2022-08-22T07:32:55.720Z,69.36
2022-08-22T07:35:41.692Z,68.98
2022-08-22T07:38:27.555Z,68.70
2022-08-22T07:41:17.991Z,67.04
2022-08-22T07:43:49.034Z,65.71
2022-08-22T07:46:30.686Z,66.09
2022-08-22T07:49:10.358Z,65.35
2022-08-22T07:51:47.566Z,64.22
2022-08-22T07:54:21.430Z,64.72
2022-08-22T07:57:05.361Z,65.25
2022-08-22T07:59:35.138Z,65.41
2022-08-22T08:02:06.278Z,64.18
2022-08-22T08:04:40.002Z,61.70
2022-08-22T08:07:11.922Z,60.97
2022-08-22T08:09:44.822Z,60.92
2022-08-22T08:12:12.968Z,60.94
2022-08-22T08:14:42.606Z,59.90
2022-08-22T08:17:24.094Z,58.79
2022-08-22T08:19:52.303Z,61.80
2022-08-22T08:22:26.458Z,61.23
2022-08-22T08:24:56.637Z,60.30
2022-08-22T08:27:50.279Z,60.73
2022-08-22T08:30:34.535Z,58.31
2022-08-22T08:33:25.563Z,56.38
2022-08-22T08:36:34.371Z,55.49
2022-08-22T08:39:23.659Z,56.27
2022-08-22T08:42:55.103Z,56.45
2022-08-22T08:46:10.794Z,57.97
2022-08-22T08:48:48.648Z,58.00
2022-08-22T08:51:45.166Z,57.98
2022-08-22T08:54:43.515Z,58.46
2022-08-22T08:57:38.464Z,60.44
2022-08-22T09:00:21.092Z,60.03
2022-08-22T09:03:11.432Z,60.11
2022-08-22T09:05:52.844Z,60.35
2022-08-22T09:08:45.509Z,60.71
2022-08-22T09:11:54.888Z,60.10
2022-08-22T09:14:40.354Z,59.59
2022-08-22T09:17:30.947Z,58.80
2022-08-22T09:20:17.985Z,58.54
2022-08-22T09:23:14.660Z,57.58
2022-08-22T09:25:54.779Z,57.81
2022-08-22T09:28:32.344Z,58.01
2022-08-22T09:31:32.784Z,59.17
2022-08-22T09:34:23.844Z,57.89
2022-08-22T09:37:25.413Z,58.98
2022-08-22T09:40:03.519Z,59.66
2022-08-22T09:42:44.891Z,60.91
2022-08-22T09:45:45.435Z,61.57
2022-08-22T09:48:49.558Z,60.74
2022-08-22T09:51:34.718Z,60.60
2022-08-22T09:54:40.218Z,59.20
2022-08-22T09:57:40.515Z,60.11
2022-08-22T10:00:22.148Z,60.47
2022-08-22T10:03:28.839Z,61.90
2022-08-22T10:06:01.513Z,61.82
2022-08-22T10:08:48.350Z,63.75
2022-08-22T10:11:28.831Z,62.93
2022-08-22T10:14:09.003Z,63.50
2022-08-22T10:16:58.160Z,63.29
2022-08-22T10:19:35.700Z,63.27
2022-08-22T10:22:05.528Z,64.79
2022-08-22T10:24:45.535Z,65.12
2022-08-22T10:27:17.573Z,63.22
2022-08-22T10:30:10.840Z,63.84
2022-08-22T10:33:00.102Z,62.28
2022-08-22T10:35:33.666Z,62.30
2022-08-22T10:38:21.457Z,61.78
2022-08-22T10:40:56.038Z,60.76
2022-08-22T10:43:40.872Z,60.61
2022-08-22T10:46:14.372Z,59.16
2022-08-22T10:48:49.040Z,59.57
2022-08-22T10:51:32.713Z,60.11
2022-08-22T10:54:19.931Z,58.71
2022-08-22T10:57:09.500Z,58.14
2022-08-22T10:59:51.031Z,56.88
2022-08-22T11:03:00.878Z,56.82
2022-08-22T11:05:36.826Z,57.65
2022-08-22T11:08:11.586Z,55.84
2022-08-22T11:10:57.573Z,55.29
2022-08-22T11:14:06.800Z,53.95
2022-08-22T11:17:23.654Z,54.20
2022-08-22T11:19:59.437Z,52.46
2022-08-22T11:22:35.375Z,53.77
2022-08-22T11:25:38.383Z,53.74
2022-08-22T11:28:12.555Z,54.41
2022-08-22T11:31:00.948Z,53.59
2022-08-22T11:33:46.467Z,55.16
2022-08-22T11:36:36.229Z,56.44
2022-08-22T11:39:22.883Z,58.05
2022-08-22T11:42:13.741Z,58.24
2022-08-22T11:44:59.763Z,59.21
2022-08-22T11:47:34.891Z,59.77
2022-08-22T11:50:21.568Z,60.24
2022-08-22T11:53:17.069Z,56.93
2022-08-22T11:56:17.049Z,60.55
2022-08-22T11:58:51.340Z,61.45
2022-08-22T12:01:23.880Z,59.89
2022-08-22T12:03:58.549Z,60.32
2022-08-22T12:06:28.895Z,58.07
2022-08-22T12:09:05.575Z,59.16
2022-08-22T12:11:45.071Z,58.77
2022-08-22T12:14:30.379Z,60.35
2022-08-22T12:17:55.932Z,59.77
2022-08-22T12:20:32.300Z,55.75
2022-08-22T12:23:06.063Z,55.79
2022-08-22T12:26:00.155Z,57.65
2022-08-22T12:28:49.763Z,58.24
2022-08-22T12:31:36.558Z,57.34
2022-08-22T12:34:23.545Z,56.11
2022-08-22T12:37:52.257Z,57.20
2022-08-22T12:40:36.426Z,58.92
2022-08-22T12:43:07.368Z,59.52
2022-08-22T12:46:12.821Z,57.85
2022-08-22T12:49:07.499Z,58.63
2022-08-22T12:52:08.602Z,58.63
2022-08-22T12:54:50.071Z,59.53
2022-08-22T12:57:27.068Z,60.85
2022-08-22T13:00:18.059Z,62.34
2022-08-22T13:02:54.360Z,66.50
2022-08-22T13:05:28.008Z,70.33
2022-08-22T13:08:04.397Z,70.26
2022-08-22T13:10:40.564Z,66.57
2022-08-22T13:13:12.741Z,66.88
2022-08-22T13:15:47.121Z,67.05
2022-08-22T13:18:30.627Z,67.29
2022-08-22T13:21:02.113Z,67.22
2022-08-22T13:23:34.276Z,68.38
2022-08-22T13:26:32.954Z,69.12
2022-08-22T13:29:26.738Z,70.27
2022-08-22T13:32:00.317Z,72.78
2022-08-22T13:34:44.673Z,73.48
2022-08-22T13:37:16.419Z,72.77
2022-08-22T13:39:47.010Z,71.35
2022-08-22T13:42:30.492Z,70.13
2022-08-22T13:45:04.513Z,69.73
2022-08-22T13:47:39.607Z,69.11
2022-08-22T13:50:19.195Z,69.58
2022-08-22T13:53:02.268Z,69.50
2022-08-22T13:55:38.759Z,68.29
2022-08-22T13:58:16.823Z,68.79
2022-08-22T14:00:58.205Z,69.34
2022-08-22T14:03:32.469Z,67.68
2022-08-22T14:06:32.789Z,69.03
2022-08-22T14:08:49.206Z,69.17
2022-08-22T14:11:27.803Z,69.44
2022-08-22T14:14:02.194Z,71.27
2022-08-22T14:16:33.707Z,71.05
2022-08-22T14:19:06.853Z,70.71
2022-08-22T14:21:40.708Z,71.48
2022-08-22T14:24:25.686Z,67.10
2022-08-22T14:27:14.426Z,73.08
2022-08-22T14:29:52.821Z,69.23
2022-08-22T14:32:22.612Z,71.27
2022-08-22T14:35:10.649Z,71.90
2022-08-22T14:37:47.414Z,69.71
2022-08-22T14:40:25.699Z,69.30
2022-08-22T14:43:09.526Z,71.64
2022-08-22T14:45:40.459Z,74.47
2022-08-22T14:48:30.283Z,73.79
2022-08-22T14:51:08.601Z,77.29
2022-08-22T14:53:38.598Z,74.08
2022-08-22T14:56:12.439Z,77.66
2022-08-22T14:59:01.823Z,77.10
2022-08-22T15:01:32.712Z,74.57
2022-08-22T15:04:03.346Z,74.59
2022-08-22T15:06:35.955Z,75.77
2022-08-22T15:09:35.459Z,72.65
2022-08-22T15:12:07.386Z,79.04
2022-08-22T15:14:37.856Z,76.89
2022-08-22T15:17:08.521Z,73.06
2022-08-22T15:19:41.048Z,70.64
2022-08-22T15:22:27.552Z,69.69
2022-08-22T15:25:12.970Z,76.70
2022-08-22T15:27:53.172Z,72.80
2022-08-22T15:30:44.462Z,74.66
2022-08-22T15:33:32.924Z,74.60
2022-08-22T15:36:27.287Z,78.08
2022-08-22T15:39:33.948Z,80.47
2022-08-22T15:42:02.747Z,80.87
2022-08-22T15:44:34.400Z,81.89
2022-08-22T15:47:10.852Z,81.07
2022-08-22T15:49:58.418Z,78.71
2022-08-22T15:52:30.244Z,81.48
2022-08-22T15:55:16.590Z,80.37
2022-08-22T15:57:52.044Z,83.95
2022-08-22T16:00:45.639Z,84.77
2022-08-22T16:03:28.988Z,81.58
2022-08-22T16:05:59.566Z,78.75
2022-08-22T16:08:51.384Z,78.34
2022-08-22T16:11:29.558Z,85.40
2022-08-22T16:14:21.686Z,83.72
2022-08-22T16:16:56.727Z,84.31
2022-08-22T16:19:27.337Z,86.30
2022-08-22T16:21:54.683Z,82.11
2022-08-22T16:24:22.087Z,86.21
2022-08-22T16:26:50.145Z,84.59
2022-08-22T16:29:41.251Z,87.41
2022-08-22T16:32:11.244Z,86.88
2022-08-22T16:34:38.519Z,86.46
2022-08-22T16:37:09.019Z,90.16
2022-08-22T16:39:38.527Z,82.52
2022-08-22T16:42:24.335Z,81.24
2022-08-22T16:44:56.903Z,85.38
2022-08-22T16:47:30.539Z,87.21
2022-08-22T16:50:19.758Z,87.12
2022-08-22T16:53:01.894Z,87.30
2022-08-22T16:55:29.634Z,84.78
2022-08-22T16:58:06.124Z,87.13
2022-08-22T17:00:57.571Z,82.75
2022-08-22T17:03:43.799Z,84.38
2022-08-22T17:06:50.428Z,83.46
2022-08-22T17:09:36.415Z,81.59
2022-08-22T17:12:25.238Z,83.65
2022-08-22T17:15:10.850Z,89.44
2022-08-22T17:18:00.353Z,90.92
2022-08-22T17:20:57.178Z,87.76
2022-08-22T17:23:46.541Z,84.28
2022-08-22T17:26:20.477Z,81.49
2022-08-22T17:29:09.883Z,81.31
2022-08-22T17:31:49.273Z,81.24
2022-08-22T17:34:29.316Z,81.37
2022-08-22T17:37:05.659Z,81.33
2022-08-22T17:40:01.035Z,81.63
2022-08-22T17:42:38.272Z,82.44
2022-08-22T17:45:20.453Z,83.08
2022-08-22T17:48:11.215Z,84.49
2022-08-22T17:50:46.294Z,83.98
2022-08-22T17:53:49.335Z,83.38
2022-08-22T17:56:31.811Z,83.83
2022-08-22T17:59:07.934Z,91.09
2022-08-22T18:01:49.644Z,86.86
2022-08-22T18:04:45.665Z,92.02
2022-08-22T18:07:14.951Z,89.90
2022-08-22T18:09:51.534Z,85.72
2022-08-22T18:12:34.356Z,84.49
2022-08-22T18:15:26.875Z,86.23
2022-08-22T18:17:59.636Z,84.54
2022-08-22T18:20:35.039Z,83.20
2022-08-22T18:23:21.517Z,81.85
2022-08-22T18:26:17.803Z,84.39
2022-08-22T18:28:53.053Z,84.04
2022-08-22T18:31:26.964Z,82.52
2022-08-22T18:34:10.112Z,84.76
2022-08-22T18:36:45.707Z,82.97
2022-08-22T18:39:25.553Z,84.16
2022-08-22T18:42:18.030Z,85.30
2022-08-22T18:44:45.769Z,83.96
2022-08-22T18:47:32.003Z,82.78
2022-08-22T18:50:02.305Z,82.53
2022-08-22T18:52:36.019Z,81.46
2022-08-22T18:55:23.408Z,80.17
2022-08-22T18:57:54.421Z,80.25
2022-08-22T19:00:48.125Z,80.79
2022-08-22T19:03:25.252Z,81.87
2022-08-22T19:06:21.213Z,79.50
2022-08-22T19:09:00.766Z,79.52
2022-08-22T19:11:37.485Z,80.32
2022-08-22T19:14:08.480Z,79.93
2022-08-22T19:16:57.851Z,79.39
2022-08-22T19:20:03.161Z,80.33
2022-08-22T19:22:36.010Z,89.72
2022-08-22T19:25:08.872Z,95.72
2022-08-22T19:28:04.159Z,92.42
2022-08-22T19:30:41.816Z,84.75
2022-08-22T19:33:20.357Z,93.96
2022-08-22T19:36:12.567Z,90.93
2022-08-22T19:38:51.058Z,86.19
2022-08-22T19:41:45.679Z,90.10
2022-08-22T19:44:19.408Z,85.37
2022-08-22T19:47:18.930Z,86.87
2022-08-22T19:50:22.702Z,86.02
2022-08-22T19:53:07.520Z,89.58
2022-08-22T19:55:38.038Z,88.52
2022-08-22T19:59:00.196Z,90.79
2022-08-22T20:01:39.440Z,91.66
2022-08-22T20:04:30.221Z,91.63
2022-08-22T20:07:14.885Z,92.07
2022-08-22T20:10:01.611Z,94.15
2022-08-22T20:12:29.255Z,87.23
2022-08-22T20:14:57.482Z,90.12
2022-08-22T20:17:25.181Z,84.87
2022-08-22T20:20:24.053Z,82.11
2022-08-22T20:22:59.701Z,83.87
2022-08-22T20:25:44.185Z,82.37
2022-08-22T20:28:34.111Z,82.05
2022-08-22T20:31:07.632Z,83.30
2022-08-22T20:33:38.882Z,88.23
2022-08-22T20:36:16.638Z,88.45
2022-08-22T20:38:58.743Z,83.68
2022-08-22T20:41:29.028Z,83.97
2022-08-22T20:44:12.618Z,82.89
2022-08-22T20:46:46.415Z,83.49
2022-08-22T20:49:19.901Z,83.98
2022-08-22T20:52:08.305Z,90.79
2022-08-22T20:54:38.973Z,92.43
2022-08-22T20:57:19.463Z,91.82
2022-08-22T20:59:58.935Z,87.86
2022-08-22T21:02:39.776Z,90.92
2022-08-22T21:05:13.535Z,86.08
2022-08-22T21:07:50.198Z,85.16
2022-08-22T21:10:46.296Z,84.38
2022-08-22T21:13:25.628Z,86.15
2022-08-22T21:16:02.662Z,90.76
2022-08-22T21:18:36.497Z,93.15
2022-08-22T21:21:22.523Z,88.54
2022-08-22T21:23:55.490Z,95.32
2022-08-22T21:26:31.553Z,95.92
2022-08-22T21:29:07.249Z,96.82
2022-08-22T21:31:41.927Z,90.36
2022-08-22T21:34:28.883Z,89.59
2022-08-22T21:37:00.418Z,94.55
2022-08-22T21:39:59.052Z,86.29
2022-08-22T21:42:35.097Z,85.53
2022-08-22T21:45:08.012Z,87.79
2022-08-22T21:47:41.150Z,85.51
2022-08-22T21:50:20.571Z,87.40
2022-08-22T21:52:54.169Z,90.83
2022-08-22T21:55:35.104Z,87.22
2022-08-22T21:58:35.175Z,84.61
2022-08-22T22:01:31.503Z,84.01
2022-08-22T22:03:59.788Z,89.27
2022-08-22T22:06:27.340Z,86.05
2022-08-22T22:08:55.211Z,87.11
2022-08-22T22:11:22.940Z,87.82
2022-08-22T22:13:50.326Z,84.85
2022-08-22T22:16:23.352Z,83.57
2022-08-22T22:18:51.048Z,88.08
2022-08-22T22:21:18.535Z,83.38
2022-08-22T22:23:46.089Z,82.90
2022-08-22T22:26:13.954Z,83.89
2022-08-22T22:28:44.479Z,82.36
2022-08-22T22:31:11.872Z,84.43
2022-08-22T22:33:42.396Z,83.04
2022-08-22T22:36:24.792Z,81.47
2022-08-22T22:38:53.390Z,80.88
2022-08-22T22:41:25.303Z,83.62
2022-08-22T22:43:54.191Z,84.05
2022-08-22T22:46:22.563Z,83.79
2022-08-22T22:48:50.261Z,85.33
2022-08-22T22:51:17.979Z,79.80
2022-08-22T22:53:46.044Z,81.47
2022-08-22T22:56:18.040Z,80.70
2022-08-22T22:58:59.289Z,81.07
2022-08-22T23:01:28.481Z,78.93
2022-08-22T23:03:58.303Z,79.01
2022-08-22T23:06:28.485Z,79.26
2022-08-22T23:08:56.578Z,81.26
2022-08-22T23:11:26.336Z,84.89
2022-08-22T23:13:54.074Z,85.98
2022-08-22T23:16:24.842Z,84.66
2022-08-22T23:18:52.375Z,84.99
2022-08-22T23:21:20.958Z,94.61
2022-08-22T23:23:49.342Z,86.60
2022-08-22T23:26:17.076Z,81.93
2022-08-22T23:28:44.951Z,83.26
2022-08-22T23:31:28.045Z,82.20
2022-08-22T23:33:56.254Z,82.45
2022-08-22T23:36:24.556Z,83.18
2022-08-22T23:38:52.115Z,82.11
2022-08-22T23:41:21.651Z,85.61
2022-08-22T23:43:52.139Z,84.64
2022-08-22T23:46:21.186Z,82.53
2022-08-22T23:48:49.620Z,93.64
2022-08-22T23:51:22.909Z,87.74
2022-08-22T23:53:55.881Z,86.53
2022-08-22T23:56:32.603Z,86.58
2022-08-22T23:59:02.103Z,85.17
